createdAt,value
2019-04-30T00:00:45.451Z,15.71
2019-04-30T00:03:25.147Z,15.71
2019-04-30T00:05:57.295Z,15.77
2019-04-30T00:08:25.826Z,15.80
2019-04-30T00:10:55.502Z,15.84
2019-04-30T00:13:25.882Z,15.87
2019-04-30T00:15:58.719Z,15.85
2019-04-30T00:18:25.442Z,15.79
2019-04-30T00:20:55.335Z,15.70
2019-04-30T00:23:29.317Z,15.59
2019-04-30T00:25:59.203Z,15.59
2019-04-30T00:28:25.584Z,15.49
2019-04-30T00:30:56.163Z,15.40
2019-04-30T00:33:27.461Z,15.31
2019-04-30T00:35:57.976Z,15.22
2019-04-30T00:38:29.482Z,15.16
2019-04-30T00:40:57.710Z,15.17
2019-04-30T00:43:26.303Z,15.15
2019-04-30T00:45:55.340Z,15.17
2019-04-30T00:48:29.536Z,15.12
2019-04-30T00:50:55.778Z,15.05
2019-04-30T00:53:26.213Z,15.05
2019-04-30T00:55:57.156Z,15.11
2019-04-30T00:58:30.267Z,15.10
2019-04-30T01:01:15.248Z,15.14
2019-04-30T01:03:49.292Z,15.14
2019-04-30T01:06:17.183Z,15.09
2019-04-30T01:08:46.745Z,15.03
2019-04-30T01:11:15.596Z,14.94
2019-04-30T01:13:50.231Z,14.93
2019-04-30T01:16:14.661Z,14.81
2019-04-30T01:18:43.286Z,14.84
2019-04-30T01:21:11.928Z,14.87
2019-04-30T01:23:47.875Z,14.81
2019-04-30T01:26:11.218Z,14.81
2019-04-30T01:28:39.854Z,14.68
2019-04-30T01:31:09.002Z,14.68
2019-04-30T01:33:38.985Z,14.72
2019-04-30T01:36:09.590Z,14.63
2019-04-30T01:38:40.017Z,14.55
2019-04-30T01:41:09.484Z,14.56
2019-04-30T01:43:38.657Z,14.50
2019-04-30T01:46:11.155Z,14.53
2019-04-30T01:48:39.325Z,14.53
2019-04-30T01:51:08.957Z,14.55
2019-04-30T01:53:38.684Z,14.52
2019-04-30T01:56:15.051Z,14.51
2019-04-30T01:58:49.488Z,14.59
2019-04-30T02:01:19.952Z,14.45
2019-04-30T02:03:48.785Z,14.46
2019-04-30T02:06:19.572Z,14.43
2019-04-30T02:08:49.393Z,14.37
2019-04-30T02:11:19.007Z,14.31
2019-04-30T02:13:49.203Z,14.35
2019-04-30T02:16:20.745Z,14.28
2019-04-30T02:18:49.500Z,14.30
2019-04-30T02:21:19.428Z,14.25
2019-04-30T02:23:49.281Z,14.07
2019-04-30T02:26:18.730Z,14.10
2019-04-30T02:28:49.463Z,14.02
2019-04-30T02:31:22.307Z,13.99
2019-04-30T02:33:50.377Z,14.02
2019-04-30T02:36:40.307Z,13.92
2019-04-30T02:39:11.111Z,13.94
2019-04-30T02:41:41.240Z,14.02
2019-04-30T02:44:11.254Z,13.93
2019-04-30T02:46:41.781Z,13.92
2019-04-30T02:49:12.433Z,13.93
2019-04-30T02:51:42.890Z,13.82
2019-04-30T02:54:23.679Z,13.82
2019-04-30T02:56:51.857Z,13.79
2019-04-30T02:59:20.482Z,13.76
2019-04-30T03:01:50.262Z,13.71
2019-04-30T03:04:19.743Z,13.71
2019-04-30T03:06:50.220Z,13.68
2019-04-30T03:09:20.272Z,13.74
2019-04-30T03:11:50.160Z,13.68
2019-04-30T03:14:20.086Z,13.62
2019-04-30T03:17:00.106Z,13.63
2019-04-30T03:19:33.542Z,13.62
2019-04-30T03:22:03.796Z,13.56
2019-04-30T03:24:32.555Z,13.52
2019-04-30T03:27:01.192Z,13.41
2019-04-30T03:29:30.451Z,13.33
2019-04-30T03:32:02.519Z,13.27
2019-04-30T03:34:32.593Z,13.18
2019-04-30T03:37:02.064Z,13.10
2019-04-30T03:39:33.648Z,13.12
2019-04-30T03:42:00.641Z,13.14
2019-04-30T03:44:32.262Z,13.25
2019-04-30T03:46:59.644Z,13.20
2019-04-30T03:49:29.933Z,13.21
2019-04-30T03:51:59.782Z,13.29
2019-04-30T03:54:29.396Z,13.35
2019-04-30T03:57:00.724Z,13.47
2019-04-30T03:59:30.229Z,13.55
2019-04-30T04:02:00.729Z,13.66
2019-04-30T04:04:52.101Z,13.72
2019-04-30T04:07:20.304Z,13.78
2019-04-30T04:09:59.871Z,13.84
2019-04-30T04:12:30.286Z,13.98
2019-04-30T04:15:03.219Z,14.09
2019-04-30T04:17:31.425Z,14.03
2019-04-30T04:20:00.060Z,14.13
2019-04-30T04:22:30.599Z,14.23
2019-04-30T04:24:59.973Z,14.24
2019-04-30T04:27:30.180Z,14.37
2019-04-30T04:30:01.079Z,14.51
2019-04-30T04:32:30.810Z,14.55
2019-04-30T04:35:00.405Z,14.63
2019-04-30T04:37:30.142Z,14.58
2019-04-30T04:39:59.671Z,14.72
2019-04-30T04:42:29.951Z,14.83
2019-04-30T04:44:59.555Z,14.97
2019-04-30T04:47:30.842Z,15.15
2019-04-30T04:50:00.741Z,15.31
2019-04-30T04:52:31.650Z,15.53
2019-04-30T04:55:00.410Z,15.59
2019-04-30T04:57:30.535Z,15.71
2019-04-30T05:00:06.416Z,15.82
2019-04-30T05:02:40.365Z,15.77
2019-04-30T05:05:09.798Z,15.69
2019-04-30T05:07:39.953Z,15.66
2019-04-30T05:10:09.270Z,15.65
2019-04-30T05:12:39.826Z,15.67
2019-04-30T05:15:09.465Z,15.71
2019-04-30T05:17:39.726Z,15.69
2019-04-30T05:20:09.983Z,15.65
2019-04-30T05:22:39.165Z,15.74
2019-04-30T05:25:08.809Z,15.72
2019-04-30T05:27:39.228Z,15.89
2019-04-30T05:30:11.761Z,15.94
2019-04-30T05:32:39.240Z,16.13
2019-04-30T05:35:09.589Z,16.32
2019-04-30T05:37:38.621Z,16.59
2019-04-30T05:40:09.247Z,16.93
2019-04-30T05:42:38.742Z,17.33
2019-04-30T05:45:09.468Z,17.62
2019-04-30T05:47:38.878Z,17.95
2019-04-30T05:50:09.031Z,18.41
2019-04-30T05:52:39.717Z,18.87
2019-04-30T05:55:08.796Z,19.20
2019-04-30T05:57:40.807Z,19.47
2019-04-30T06:00:09.917Z,19.73
2019-04-30T06:02:39.917Z,19.90
2019-04-30T06:05:08.941Z,20.03
2019-04-30T06:07:39.396Z,20.02
2019-04-30T06:10:10.094Z,19.97
2019-04-30T06:12:55.471Z,20.17
2019-04-30T06:15:44.155Z,20.56
2019-04-30T06:18:14.000Z,20.81
2019-04-30T06:20:42.890Z,21.14
2019-04-30T06:23:11.523Z,21.86
2019-04-30T06:25:55.802Z,22.27
2019-04-30T06:28:10.853Z,22.53
2019-04-30T06:30:39.875Z,22.84
2019-04-30T06:33:11.418Z,22.85
2019-04-30T06:35:39.268Z,23.01
2019-04-30T06:38:08.560Z,22.78
2019-04-30T06:40:39.075Z,23.33
2019-04-30T06:43:09.136Z,23.13
2019-04-30T06:45:38.813Z,22.81
2019-04-30T06:48:09.026Z,22.75
2019-04-30T06:50:39.358Z,22.75
2019-04-30T06:53:09.349Z,22.21
2019-04-30T06:55:39.165Z,22.13
2019-04-30T06:58:14.665Z,21.86
2019-04-30T07:00:40.049Z,21.46
2019-04-30T07:03:09.767Z,21.24
2019-04-30T07:05:39.240Z,20.68
2019-04-30T07:08:15.531Z,19.88
2019-04-30T07:10:55.009Z,19.60
2019-04-30T07:13:19.076Z,19.57
2019-04-30T07:15:49.004Z,19.53
2019-04-30T07:18:18.985Z,19.49
2019-04-30T07:20:48.631Z,19.33
2019-04-30T07:23:18.806Z,19.01
2019-04-30T07:25:49.303Z,19.01
2019-04-30T07:28:19.075Z,18.88
2019-04-30T07:30:49.480Z,18.53
2019-04-30T07:33:20.746Z,18.60
2019-04-30T07:35:49.888Z,18.69
2019-04-30T07:38:19.342Z,18.85
2019-04-30T07:40:49.306Z,18.76
2019-04-30T07:43:18.983Z,18.88
2019-04-30T07:45:49.597Z,18.99
2019-04-30T07:48:21.137Z,19.20
2019-04-30T07:50:51.473Z,19.41
2019-04-30T07:53:18.907Z,19.45
2019-04-30T07:55:49.420Z,19.62
2019-04-30T07:58:20.520Z,19.82
2019-04-30T08:00:49.704Z,20.01
2019-04-30T08:03:26.669Z,20.16
2019-04-30T08:05:59.837Z,20.33
2019-04-30T08:08:30.180Z,20.53
2019-04-30T08:10:59.190Z,20.83
2019-04-30T08:13:31.961Z,21.11
2019-04-30T08:15:59.636Z,21.37
2019-04-30T08:18:29.487Z,21.35
2019-04-30T08:20:58.678Z,21.56
2019-04-30T08:23:34.733Z,21.70
2019-04-30T08:25:58.985Z,21.77
2019-04-30T08:28:30.114Z,21.98
2019-04-30T08:30:58.917Z,22.23
2019-04-30T08:33:29.253Z,22.39
2019-04-30T08:36:00.770Z,22.47
2019-04-30T08:38:30.038Z,22.42
2019-04-30T08:41:00.830Z,22.78
2019-04-30T08:43:29.343Z,22.73
2019-04-30T08:45:59.482Z,23.15
2019-04-30T08:48:43.857Z,23.39
2019-04-30T08:50:59.544Z,24.18
2019-04-30T08:53:32.841Z,25.02
2019-04-30T08:55:59.160Z,26.83
2019-04-30T08:58:29.229Z,28.75
2019-04-30T09:00:58.775Z,30.42
2019-04-30T09:03:29.480Z,29.00
2019-04-30T09:05:59.607Z,29.84
2019-04-30T09:08:29.446Z,29.46
2019-04-30T09:10:59.518Z,28.61
2019-04-30T09:13:28.767Z,27.16
2019-04-30T09:15:59.350Z,25.94
2019-04-30T09:18:29.214Z,24.98
2019-04-30T09:21:04.213Z,23.93
2019-04-30T09:23:43.022Z,22.93
2019-04-30T09:25:58.714Z,22.39
2019-04-30T09:28:29.347Z,22.24
2019-04-30T09:30:58.670Z,23.65
2019-04-30T09:33:29.268Z,25.90
2019-04-30T09:35:59.514Z,27.40
2019-04-30T09:38:29.051Z,29.60
2019-04-30T09:40:59.449Z,31.77
2019-04-30T09:43:28.701Z,36.62
2019-04-30T09:45:59.147Z,40.72
2019-04-30T09:48:30.338Z,40.72
2019-04-30T09:51:00.476Z,42.64
2019-04-30T09:53:29.719Z,44.62
2019-04-30T09:55:59.621Z,43.04
2019-04-30T09:58:30.002Z,40.84
2019-04-30T10:00:59.318Z,39.34
2019-04-30T10:03:30.260Z,36.47
2019-04-30T10:05:59.057Z,35.59
2019-04-30T10:08:30.338Z,31.71
2019-04-30T10:11:00.198Z,29.86
2019-04-30T10:13:28.824Z,26.78
2019-04-30T10:16:05.160Z,25.23
2019-04-30T10:18:33.861Z,23.50
2019-04-30T10:21:02.491Z,22.14
2019-04-30T10:23:31.119Z,21.43
2019-04-30T10:25:59.764Z,20.86
2019-04-30T10:28:28.703Z,22.37
2019-04-30T10:30:57.357Z,24.00
2019-04-30T10:33:25.987Z,23.97
2019-04-30T10:35:54.616Z,24.27
2019-04-30T10:38:23.456Z,25.45
2019-04-30T10:40:52.078Z,25.87
2019-04-30T10:43:20.652Z,25.40
2019-04-30T10:45:49.284Z,25.37
2019-04-30T10:48:18.061Z,24.02
2019-04-30T10:50:46.690Z,23.16
2019-04-30T10:53:15.616Z,22.25
2019-04-30T10:55:44.311Z,21.91
2019-04-30T10:58:15.379Z,21.96
2019-04-30T11:00:43.376Z,22.70
2019-04-30T11:03:19.914Z,24.64
2019-04-30T11:05:42.409Z,26.97
2019-04-30T11:08:11.233Z,27.72
2019-04-30T11:10:40.112Z,28.60
2019-04-30T11:13:08.775Z,29.21
2019-04-30T11:15:39.303Z,29.28
2019-04-30T11:18:07.880Z,29.24
2019-04-30T11:20:36.705Z,28.80
2019-04-30T11:23:14.253Z,28.30
2019-04-30T11:25:37.112Z,28.11
2019-04-30T11:28:06.750Z,27.69
2019-04-30T11:30:36.437Z,27.04
2019-04-30T11:33:05.395Z,26.27
2019-04-30T11:35:34.241Z,25.81
2019-04-30T11:38:20.490Z,25.32
2019-04-30T11:40:48.659Z,24.80
2019-04-30T11:43:18.227Z,24.49
2019-04-30T11:45:58.679Z,24.06
2019-04-30T11:48:28.870Z,24.00
2019-04-30T11:50:59.432Z,23.97
2019-04-30T11:53:30.647Z,23.74
2019-04-30T11:55:59.167Z,23.42
2019-04-30T11:58:30.401Z,23.34
2019-04-30T12:00:59.294Z,23.08
2019-04-30T12:03:28.659Z,23.13
2019-04-30T12:05:58.945Z,23.07
2019-04-30T12:08:29.423Z,22.85
2019-04-30T12:11:02.472Z,22.67
2019-04-30T12:13:31.986Z,22.57
2019-04-30T12:18:28.583Z,22.40
2019-04-30T12:20:57.224Z,22.28
2019-04-30T12:23:25.859Z,22.23
2019-04-30T12:25:54.601Z,22.21
2019-04-30T12:28:23.243Z,21.96
2019-04-30T12:30:51.881Z,21.57
2019-04-30T12:33:20.501Z,21.51
2019-04-30T12:35:51.340Z,21.51
2019-04-30T12:38:19.475Z,21.52
2019-04-30T12:40:48.218Z,21.71
2019-04-30T12:43:16.873Z,21.81
2019-04-30T12:45:45.541Z,21.78
2019-04-30T12:48:20.283Z,21.79
2019-04-30T12:50:53.532Z,21.80
2019-04-30T12:53:23.798Z,21.65
2019-04-30T12:56:06.549Z,21.81
2019-04-30T12:58:35.377Z,21.78
2019-04-30T13:01:04.188Z,21.48
2019-04-30T13:03:32.767Z,21.19
2019-04-30T13:06:02.527Z,20.90
2019-04-30T13:08:32.379Z,20.82
2019-04-30T13:11:01.970Z,20.68
2019-04-30T13:13:32.168Z,20.53
2019-04-30T13:16:01.162Z,20.37
2019-04-30T13:18:29.806Z,20.22
2019-04-30T13:20:58.952Z,20.14
2019-04-30T13:23:29.783Z,19.98
2019-04-30T13:26:00.857Z,19.86
2019-04-30T13:28:30.638Z,19.83
2019-04-30T13:30:59.408Z,19.86
2019-04-30T13:33:29.692Z,19.82
2019-04-30T13:35:58.899Z,19.79
2019-04-30T13:38:29.290Z,19.72
2019-04-30T13:40:59.581Z,19.79
2019-04-30T13:43:45.014Z,19.82
2019-04-30T13:46:13.661Z,19.79
2019-04-30T13:48:42.280Z,19.82
2019-04-30T13:51:10.927Z,19.89
2019-04-30T13:53:39.645Z,19.87
2019-04-30T13:56:08.889Z,19.90
2019-04-30T13:58:37.581Z,19.99
2019-04-30T14:01:06.481Z,19.94
2019-04-30T14:03:36.758Z,19.80
2019-04-30T14:06:06.456Z,19.90
2019-04-30T14:08:51.813Z,19.92
2019-04-30T14:11:20.439Z,20.04
2019-04-30T14:13:49.197Z,20.04
2019-04-30T14:16:17.896Z,20.01
2019-04-30T14:18:48.675Z,20.05
2019-04-30T14:21:16.884Z,20.08
2019-04-30T14:23:47.300Z,20.03
2019-04-30T14:26:15.932Z,19.99
2019-04-30T14:28:46.617Z,20.00
2019-04-30T14:31:15.007Z,19.85
2019-04-30T14:33:43.639Z,19.82
2019-04-30T14:36:13.723Z,19.74
2019-04-30T14:38:42.348Z,19.65
2019-04-30T14:41:11.907Z,19.64
2019-04-30T14:43:44.231Z,19.66
2019-04-30T14:46:33.718Z,19.65
2019-04-30T14:49:10.057Z,19.62
2019-04-30T14:51:37.670Z,19.56
2019-04-30T14:54:09.529Z,19.53
2019-04-30T14:56:51.847Z,19.62
2019-04-30T14:59:39.037Z,19.65
2019-04-30T15:02:29.577Z,19.65
2019-04-30T15:04:58.735Z,19.57
2019-04-30T15:07:29.446Z,19.59
2019-04-30T15:09:59.487Z,19.56
2019-04-30T15:12:29.447Z,19.30
2019-04-30T15:14:59.787Z,19.07
2019-04-30T15:17:28.417Z,18.94
2019-04-30T15:19:58.950Z,18.82
2019-04-30T15:22:29.287Z,18.71
2019-04-30T15:24:59.170Z,18.60
2019-04-30T15:27:29.096Z,18.47
2019-04-30T15:30:00.509Z,18.36
2019-04-30T15:32:30.627Z,18.34
2019-04-30T15:34:59.338Z,18.16
2019-04-30T15:37:28.741Z,18.11
2019-04-30T15:39:59.274Z,18.00
2019-04-30T15:42:28.026Z,18.05
2019-04-30T15:44:56.666Z,18.05
2019-04-30T15:47:25.288Z,18.07
2019-04-30T15:49:53.934Z,18.06
2019-04-30T15:52:24.203Z,18.09
2019-04-30T15:54:52.839Z,18.04
2019-04-30T15:57:21.517Z,18.04
2019-04-30T15:59:50.108Z,18.09
2019-04-30T16:02:23.139Z,18.10
2019-04-30T16:05:11.735Z,18.05
2019-04-30T16:07:42.023Z,18.09
2019-04-30T16:10:28.525Z,18.02
2019-04-30T16:12:58.958Z,17.88
2019-04-30T16:15:31.784Z,17.70
2019-04-30T16:18:02.052Z,17.57
2019-04-30T16:20:32.072Z,17.40
2019-04-30T16:23:00.827Z,17.23
2019-04-30T16:25:30.314Z,17.12
2019-04-30T16:27:59.260Z,17.06
2019-04-30T16:30:28.941Z,16.97
2019-04-30T16:33:19.492Z,16.93
2019-04-30T16:35:50.803Z,16.81
2019-04-30T16:38:20.763Z,16.62
2019-04-30T16:40:49.065Z,16.54
2019-04-30T16:43:18.639Z,16.43
2019-04-30T16:45:49.376Z,16.30
2019-04-30T16:48:19.425Z,16.21
2019-04-30T16:50:51.175Z,16.15
2019-04-30T16:53:24.648Z,15.98
2019-04-30T16:55:52.058Z,15.84
2019-04-30T16:58:22.061Z,15.75
2019-04-30T17:00:52.125Z,15.68
2019-04-30T17:03:28.770Z,15.60
2019-04-30T17:05:59.666Z,15.53
2019-04-30T17:08:32.831Z,15.46
2019-04-30T17:11:07.433Z,15.37
2019-04-30T17:13:38.902Z,15.32
2019-04-30T17:16:11.338Z,15.29
2019-04-30T17:18:41.708Z,15.17
2019-04-30T17:21:10.596Z,15.10
2019-04-30T17:23:39.266Z,15.02
2019-04-30T17:26:07.995Z,14.92
2019-04-30T17:28:38.613Z,14.86
2019-04-30T17:31:24.660Z,14.82
2019-04-30T17:33:53.356Z,14.78
2019-04-30T17:36:23.445Z,14.68
2019-04-30T17:38:53.722Z,14.70
2019-04-30T17:41:22.480Z,14.65
2019-04-30T17:43:51.207Z,14.59
2019-04-30T17:46:20.212Z,14.53
2019-04-30T17:48:50.498Z,14.51
2019-04-30T17:51:19.414Z,14.53
2019-04-30T17:54:07.129Z,14.54
2019-04-30T17:56:35.757Z,14.60
2019-04-30T17:59:06.813Z,14.63
2019-04-30T18:01:36.014Z,14.76
2019-04-30T18:04:04.691Z,14.86
2019-04-30T18:06:33.413Z,14.87
2019-04-30T18:09:02.116Z,14.91
2019-04-30T18:11:32.282Z,14.95
2019-04-30T18:14:00.952Z,14.91
2019-04-30T18:16:29.606Z,14.90
2019-04-30T18:19:02.844Z,14.91
2019-04-30T18:21:40.123Z,14.87
2019-04-30T18:24:19.715Z,14.71
2019-04-30T18:26:51.755Z,14.68
2019-04-30T18:29:20.411Z,14.54
2019-04-30T18:31:50.688Z,14.33
2019-04-30T18:34:19.509Z,14.17
2019-04-30T18:36:48.652Z,14.04
2019-04-30T18:39:18.916Z,13.81
2019-04-30T18:41:50.476Z,13.70
2019-04-30T18:44:20.168Z,13.63
2019-04-30T18:46:49.436Z,13.54
2019-04-30T18:49:18.734Z,13.41
2019-04-30T18:51:49.209Z,13.27
2019-04-30T18:54:18.372Z,13.11
2019-04-30T18:56:49.003Z,12.98
2019-04-30T18:59:19.517Z,12.82
2019-04-30T19:01:48.404Z,12.66
2019-04-30T19:04:18.943Z,12.58
2019-04-30T19:06:47.503Z,12.49
2019-04-30T19:09:33.084Z,12.44
2019-04-30T19:12:21.688Z,12.39
2019-04-30T19:14:54.705Z,12.30
2019-04-30T19:17:29.398Z,12.15
2019-04-30T19:19:59.685Z,12.04
2019-04-30T19:22:28.681Z,12.03
2019-04-30T19:25:00.772Z,11.96
2019-04-30T19:27:29.577Z,11.82
2019-04-30T19:29:59.451Z,11.81
2019-04-30T19:32:30.315Z,11.79
2019-04-30T19:35:00.268Z,11.78
2019-04-30T19:37:28.908Z,11.74
2019-04-30T19:39:59.256Z,11.74
2019-04-30T19:42:29.503Z,11.67
2019-04-30T19:45:08.938Z,11.59
2019-04-30T19:47:30.754Z,11.58
2019-04-30T19:49:59.517Z,11.59
2019-04-30T19:52:29.651Z,11.57
2019-04-30T19:54:58.719Z,11.53
2019-04-30T19:57:28.658Z,11.45
2019-04-30T19:59:58.690Z,11.40
2019-04-30T20:02:29.471Z,11.45
2019-04-30T20:04:59.068Z,11.43
2019-04-30T20:07:29.085Z,11.35
2019-04-30T20:10:03.470Z,11.39
2019-04-30T20:12:29.081Z,11.30
2019-04-30T20:15:00.569Z,11.24
2019-04-30T20:17:29.654Z,11.27
2019-04-30T20:19:58.894Z,11.22
2019-04-30T20:22:29.293Z,11.39
2019-04-30T20:24:59.271Z,11.51
2019-04-30T20:27:29.894Z,11.49
2019-04-30T20:29:59.249Z,11.43
2019-04-30T20:32:36.210Z,11.40
2019-04-30T20:34:59.771Z,11.37
2019-04-30T20:37:29.910Z,11.33
2019-04-30T20:40:00.108Z,11.29
2019-04-30T20:42:28.864Z,11.30
2019-04-30T20:44:58.909Z,11.23
2019-04-30T20:47:29.841Z,11.25
2019-04-30T20:49:58.005Z,11.24
2019-04-30T20:52:29.083Z,11.24
2019-04-30T20:54:57.723Z,11.24
2019-04-30T20:57:26.368Z,11.21
2019-04-30T20:59:55.006Z,11.16
2019-04-30T21:02:23.698Z,11.08
2019-04-30T21:04:52.396Z,11.06
2019-04-30T21:07:21.005Z,11.02
2019-04-30T21:09:49.669Z,11.00
2019-04-30T21:12:18.869Z,10.98
2019-04-30T21:14:48.542Z,10.96
2019-04-30T21:17:17.279Z,10.98
2019-04-30T21:19:45.906Z,10.97
2019-04-30T21:22:14.548Z,10.97
2019-04-30T21:24:43.097Z,11.06
2019-04-30T21:27:11.708Z,10.94
2019-04-30T21:29:40.397Z,10.92
2019-04-30T21:32:16.513Z,10.90
2019-04-30T21:34:46.788Z,10.95
2019-04-30T21:37:15.267Z,10.83
2019-04-30T21:39:43.916Z,10.85
2019-04-30T21:42:12.542Z,10.86
2019-04-30T21:44:41.173Z,10.82
2019-04-30T21:47:09.810Z,10.82
2019-04-30T21:49:38.455Z,10.79
2019-04-30T21:52:07.074Z,10.79
2019-04-30T21:54:38.781Z,10.71
2019-04-30T21:57:06.040Z,10.79
2019-04-30T21:59:34.695Z,10.79
2019-04-30T22:02:03.707Z,10.62
2019-04-30T22:04:32.343Z,10.55
2019-04-30T22:07:00.919Z,10.37
2019-04-30T22:09:29.727Z,10.40
2019-04-30T22:11:59.208Z,10.34
2019-04-30T22:14:27.999Z,10.26
2019-04-30T22:16:56.637Z,10.32
2019-04-30T22:19:25.333Z,10.39
2019-04-30T22:21:54.259Z,10.28
2019-04-30T22:24:24.741Z,10.31
2019-04-30T22:26:53.324Z,10.30
2019-04-30T22:29:22.010Z,10.20
2019-04-30T22:31:50.646Z,10.28
2019-04-30T22:34:19.462Z,10.23
2019-04-30T22:36:49.002Z,10.21
2019-04-30T22:39:25.360Z,10.21
2019-04-30T22:42:03.064Z,10.19
2019-04-30T22:44:31.673Z,10.19
2019-04-30T22:47:00.734Z,10.22
2019-04-30T22:49:29.447Z,10.22
2019-04-30T22:51:58.077Z,10.21
2019-04-30T22:54:26.705Z,10.24
2019-04-30T22:56:55.334Z,10.20
2019-04-30T22:59:23.964Z,10.00
2019-04-30T23:01:57.014Z,10.03
2019-04-30T23:04:42.710Z,10.01
2019-04-30T23:07:11.388Z,10.00
2019-04-30T23:09:40.016Z,10.00
2019-04-30T23:12:08.718Z,10.06
2019-04-30T23:14:37.287Z,10.01
2019-04-30T23:17:06.159Z,10.04
2019-04-30T23:19:34.752Z,10.05
2019-04-30T23:22:03.379Z,10.04
2019-04-30T23:24:32.005Z,10.04
2019-04-30T23:27:00.571Z,9.96
2019-04-30T23:29:29.276Z,9.98
2019-04-30T23:31:58.116Z,9.96
2019-04-30T23:34:26.781Z,9.92
2019-04-30T23:36:55.401Z,9.90
2019-04-30T23:39:23.955Z,9.82
2019-04-30T23:41:52.598Z,9.83
2019-04-30T23:44:21.224Z,9.82
2019-04-30T23:46:49.854Z,9.85
2019-04-30T23:49:18.518Z,9.66
2019-04-30T23:51:47.142Z,9.77
2019-04-30T23:54:15.757Z,9.70
2019-04-30T23:56:44.386Z,9.74
2019-04-30T23:59:13.199Z,9.70
